Time;durP1;ratioP1;P1;durP2;ratioP2;P2;SDS_P1;SDS_P2;PMS_P1;PMS_P2;Temp;Humidity;BMP_temperature;BMP_pressure;BME280_temperature;BME280_humidity;BME280_pressure;Samples;Min_cycle;Max_cycle;Signal;HPM_P1;HPM_P2
2023/10/11 00:01:01;;;;;;;11.85;5.80;;;10.70;99.90;;;;;;5046911;28;20021;-75
2023/10/11 00:05:53;;;;;;;;;;;10.80;99.90;;;;;;5048472;28;20045;-75
2023/10/11 00:08:19;;;;;;;17.02;8.25;;;10.90;99.90;;;;;;5046835;28;20429;-74
2023/10/11 00:11:03;;;;;;;15.00;8.25;;;11.00;99.90;;;;;;5046962;28;20060;-75
2023/10/11 00:13:33;;;;;;;13.52;7.22;;;11.10;99.90;;;;;;5048000;28;20029;-75
2023/10/11 00:16:07;;;;;;;18.38;7.43;;;11.10;99.90;;;;;;5046656;28;20033;-75
2023/10/11 00:18:34;;;;;;;9.80;5.50;;;11.00;99.90;;;;;;5046698;28;20159;-74
2023/10/11 00:21:09;;;;;;;12.80;5.15;;;11.00;99.90;;;;;;5048009;28;20562;-74
2023/10/11 00:23:36;;;;;;;10.40;5.13;;;11.00;99.90;;;;;;5048073;28;20091;-75
2023/10/11 00:26:02;;;;;;;7.43;4.45;;;11.00;99.90;;;;;;5046811;28;20037;-74
2023/10/11 00:28:31;;;;;;;;;;;11.00;99.90;;;;;;5047276;28;20025;-75
2023/10/11 00:31:00;;;;;;;9.43;5.43;;;11.10;99.90;;;;;;5046752;28;20370;-75
2023/10/11 00:33:27;;;;;;;8.15;4.68;;;11.10;99.90;;;;;;5046638;28;20047;-76
2023/10/11 00:35:54;;;;;;;7.72;4.53;;;11.20;99.90;;;;;;5046658;28;20029;-75
2023/10/11 00:38:27;;;;;;;9.15;4.32;;;11.20;99.90;;;;;;5046462;28;20414;-75
2023/10/11 00:41:17;;;;;;;8.35;4.25;;;11.20;99.90;;;;;;5046574;28;20029;-75
2023/10/11 00:43:47;;;;;;;7.43;4.40;;;11.20;99.90;;;;;;5047610;28;20048;-75
2023/10/11 00:46:14;;;;;;;13.77;6.05;;;11.20;99.90;;;;;;5051537;28;20044;-75
2023/10/11 00:48:53;;;;;;;12.85;7.53;;;11.30;99.90;;;;;;5051382;28;20086;-75
2023/10/11 00:51:39;;;;;;;19.30;9.07;;;11.30;99.90;;;;;;5051524;28;20497;-75
2023/10/11 00:54:05;;;;;;;16.95;7.45;;;11.30;99.90;;;;;;5051397;28;20029;-75
2023/10/11 00:56:31;;;;;;;14.52;6.43;;;11.40;99.90;;;;;;5051271;28;20032;-75
2023/10/11 00:59:10;;;;;;;13.18;6.35;;;11.40;99.90;;;;;;5051029;28;20475;-75
2023/10/11 01:01:37;;;;;;;14.30;6.75;;;11.40;99.90;;;;;;5051167;28;20025;-76
2023/10/11 01:04:04;;;;;;;17.02;6.40;;;11.40;99.90;;;;;;5050984;28;20052;-76
2023/10/11 01:06:29;;;;;;;14.00;7.50;;;11.50;99.90;;;;;;5049814;28;20044;-76
2023/10/11 01:08:55;;;;;;;;;;;11.50;99.90;;;;;;5051718;28;20025;-75
2023/10/11 01:11:25;;;;;;;12.40;7.18;;;11.50;99.90;;;;;;5049880;28;19904;-75
2023/10/11 01:13:53;;;;;;;13.18;6.18;;;11.60;99.90;;;;;;5051021;28;20061;-75
2023/10/11 01:16:25;;;;;;;16.90;6.32;;;11.60;99.90;;;;;;5050981;28;20049;-76
2023/10/11 01:18:50;;;;;;;10.82;5.55;;;11.60;99.90;;;;;;5050747;28;20044;-76
2023/10/11 01:21:16;;;;;;;;;;;11.50;99.90;;;;;;5051343;28;20024;-76
2023/10/11 01:23:42;;;;;;;9.60;4.60;;;11.50;99.90;;;;;;5049444;28;19904;-75
2023/10/11 01:26:08;;;;;;;;;;;11.50;99.90;;;;;;5051365;28;20040;-77
2023/10/11 01:28:34;;;;;;;12.85;5.40;;;11.50;99.90;;;;;;5049565;28;19905;-76
2023/10/11 01:31:02;;;;;;;9.07;4.60;;;11.50;99.90;;;;;;5049413;28;20398;-77
2023/10/11 01:33:28;;;;;;;9.00;4.82;;;11.60;99.90;;;;;;5050865;28;20019;-76
2023/10/11 01:35:53;;;;;;;;;;;11.60;99.90;;;;;;5051003;28;20058;-77
2023/10/11 01:38:19;;;;;;;7.72;4.22;;;11.60;99.90;;;;;;5049210;28;20419;-75
2023/10/11 01:40:44;;;;;;;;;;;11.60;99.90;;;;;;5050894;28;20453;-76
2023/10/11 01:43:10;;;;;;;8.20;3.95;;;11.60;99.90;;;;;;5050539;28;19916;-76
2023/10/11 01:45:39;;;;;;;;;;;11.60;99.90;;;;;;5049340;28;20052;-76
2023/10/11 01:48:05;;;;;;;13.02;5.10;;;11.60;99.90;;;;;;5050316;28;20498;-77
2023/10/11 01:50:31;;;;;;;9.77;4.75;;;11.60;99.90;;;;;;5050258;28;20496;-76
2023/10/11 01:52:56;;;;;;;;;;;11.60;99.90;;;;;;5050717;28;20509;-76
2023/10/11 01:55:22;;;;;;;6.88;4.57;;;11.60;99.90;;;;;;5049036;28;19916;-75
2023/10/11 01:57:51;;;;;;;13.40;5.10;;;11.70;99.90;;;;;;5048398;28;20516;-76
2023/10/11 02:00:23;;;;;;;9.27;5.47;;;11.70;99.90;;;;;;5048901;28;20032;-74
2023/10/11 02:02:55;;;;;;;11.05;5.32;;;11.70;99.90;;;;;;5048786;28;20036;-76
2023/10/11 02:05:24;;;;;;;9.98;5.28;;;11.70;99.90;;;;;;5048844;28;20028;-75
2023/10/11 02:07:50;;;;;;;8.40;4.57;;;11.70;99.90;;;;;;5048594;28;20037;-75
2023/10/11 02:10:25;;;;;;;7.65;4.47;;;11.80;99.90;;;;;;5048580;28;20033;-75
2023/10/11 02:12:52;;;;;;;10.60;6.50;;;11.80;99.90;;;;;;5048606;28;20531;-76
2023/10/11 02:15:21;;;;;;;12.98;7.10;;;11.80;99.90;;;;;;5049713;28;20116;-75
2023/10/11 02:17:51;;;;;;;11.50;6.30;;;11.90;99.90;;;;;;5048510;28;20587;-75
2023/10/11 02:20:21;;;;;;;12.68;5.85;;;11.90;99.90;;;;;;5049730;28;20029;-75
2023/10/11 02:22:55;;;;;;;9.25;5.70;;;11.80;99.90;;;;;;5048348;28;20014;-75
2023/10/11 02:25:27;;;;;;;10.73;6.30;;;11.80;99.90;;;;;;5049571;28;20033;-76
2023/10/11 02:27:54;;;;;;;12.10;6.38;;;11.80;99.90;;;;;;5049584;28;20032;-76
2023/10/11 02:30:24;;;;;;;14.70;6.10;;;11.80;99.90;;;;;;5048185;28;20040;-75
2023/10/11 02:32:51;;;;;;;13.80;5.78;;;11.80;99.90;;;;;;5049349;28;20023;-75
2023/10/11 02:35:18;;;;;;;9.70;5.75;;;11.90;99.90;;;;;;5049480;28;20033;-76
2023/10/11 02:37:47;;;;;;;8.60;4.63;;;11.80;99.90;;;;;;5048878;28;20025;-75
2023/10/11 02:40:22;;;;;;;9.15;4.35;;;11.80;99.90;;;;;;5048815;28;20094;-76
2023/10/11 02:42:49;;;;;;;6.60;4.53;;;11.80;99.90;;;;;;5047684;28;20024;-75
2023/10/11 02:45:19;;;;;;;10.05;4.25;;;11.90;99.90;;;;;;5047939;28;20033;-76
2023/10/11 02:47:45;;;;;;;10.80;4.32;;;11.90;99.90;;;;;;5049056;28;20467;-76
2023/10/11 02:50:11;;;;;;;7.25;4.88;;;11.90;99.90;;;;;;5048854;28;20051;-77
2023/10/11 02:52:37;;;;;;;;;;;11.90;99.90;;;;;;5049279;28;20035;-76
2023/10/11 02:57:45;;;;;;;15.63;6.80;;;11.90;99.90;;;;;;5049117;28;20129;-76
2023/10/11 03:00:32;;;;;;;;;;;11.90;99.90;;;;;;5049059;28;20096;-73
2023/10/11 03:02:56;;;;;;;11.27;5.28;;;12.00;99.90;;;;;;5048716;28;19909;-76
2023/10/11 03:05:27;;;;;;;;;;;11.90;99.90;;;;;;5049163;28;20047;-76
2023/10/11 03:08:13;;;;;;;16.75;7.43;;;11.90;99.90;;;;;;5047860;28;19959;-75
2023/10/11 03:10:43;;;;;;;13.90;7.60;;;12.00;99.90;;;;;;5048683;28;20017;-75
2023/10/11 03:13:19;;;;;;;12.18;6.72;;;12.00;99.90;;;;;;5048503;28;20398;-75
2023/10/11 03:15:54;;;;;;;9.05;5.85;;;12.00;99.90;;;;;;5047193;28;20029;-75
2023/10/11 03:18:32;;;;;;;10.90;6.05;;;12.00;99.90;;;;;;5047005;28;20063;-76
2023/10/11 03:21:09;;;;;;;10.57;5.90;;;12.00;99.90;;;;;;5047250;28;20122;-75
2023/10/11 03:23:44;;;;;;;8.70;4.80;;;12.00;99.90;;;;;;5048338;28;20040;-75
2023/10/11 03:26:19;;;;;;;9.23;5.13;;;12.00;99.90;;;;;;5048353;28;20041;-75
2023/10/11 03:28:57;;;;;;;7.50;4.22;;;12.00;99.90;;;;;;5048237;28;20028;-76
2023/10/11 03:31:27;;;;;;;11.82;5.72;;;12.00;99.90;;;;;;5047163;28;20037;-75
2023/10/11 03:33:57;;;;;;;8.55;5.57;;;12.10;99.90;;;;;;5048574;28;20429;-75
2023/10/11 03:36:43;;;;;;;11.75;6.47;;;12.00;99.90;;;;;;5047075;28;20044;-76
2023/10/11 03:39:09;;;;;;;11.27;6.63;;;12.00;99.90;;;;;;5048396;28;20033;-75
2023/10/11 03:41:48;;;;;;;14.70;8.52;;;12.10;99.90;;;;;;5047351;28;20033;-76
2023/10/11 03:44:17;;;;;;;11.85;7.22;;;12.10;99.90;;;;;;5048338;28;20485;-75
2023/10/11 03:46:47;;;;;;;12.18;7.25;;;12.10;99.90;;;;;;5048163;28;20044;-75
2023/10/11 03:51:48;;;;;;;16.25;8.77;;;12.10;99.90;;;;;;5048321;28;20059;-75
2023/10/11 03:54:22;;;;;;;14.35;9.02;;;12.10;99.90;;;;;;5046800;28;20032;-75
2023/10/11 03:56:54;;;;;;;13.20;8.32;;;12.10;99.90;;;;;;5048208;28;20032;-74
2023/10/11 03:59:26;;;;;;;12.52;7.88;;;12.20;99.90;;;;;;5048228;28;20025;-76
2023/10/11 04:01:53;;;;;;;11.20;6.63;;;12.10;99.90;;;;;;5046650;28;20033;-75
2023/10/11 04:04:22;;;;;;;17.55;7.78;;;12.20;99.90;;;;;;5046703;28;20488;-75
2023/10/11 04:06:51;;;;;;;15.15;8.68;;;12.20;99.90;;;;;;5048026;28;20079;-75
2023/10/11 04:09:22;;;;;;;14.70;7.60;;;12.20;99.90;;;;;;5048045;28;20025;-75
2023/10/11 04:11:57;;;;;;;14.18;6.80;;;12.20;99.90;;;;;;5046425;28;20577;-76
2023/10/11 04:14:25;;;;;;;19.38;7.95;;;12.20;99.90;;;;;;5046564;28;20152;-74
2023/10/11 04:16:56;;;;;;;14.18;7.70;;;12.10;99.90;;;;;;5047569;28;20029;-74
2023/10/11 04:19:21;;;;;;;11.75;6.97;;;12.20;99.90;;;;;;5047652;28;20035;-74
2023/10/11 04:24:19;;;;;;;11.63;6.50;;;12.10;99.90;;;;;;5051605;28;20397;-74
2023/10/11 04:26:53;;;;;;;13.52;8.48;;;12.10;99.90;;;;;;5051707;28;20108;-76
2023/10/11 04:29:23;;;;;;;13.15;7.75;;;12.10;99.90;;;;;;5051378;28;20593;-75
2023/10/11 04:34:32;;;;;;;13.80;7.35;;;12.10;99.90;;;;;;5042475;28;20026;-75
2023/10/11 04:37:00;;;;;;;15.35;6.88;;;12.10;99.90;;;;;;5031748;28;20086;-75
2023/10/11 04:39:34;;;;;;;14.50;6.85;;;12.10;99.90;;;;;;5031713;28;20017;-76
2023/10/11 04:42:00;;;;;;;11.93;6.80;;;12.10;99.90;;;;;;5031747;28;20037;-75
2023/10/11 04:44:47;;;;;;;11.80;7.03;;;12.10;99.90;;;;;;5038764;28;20095;-75
2023/10/11 04:47:17;;;;;;;17.67;8.45;;;12.10;99.90;;;;;;5051561;28;20029;-74
2023/10/11 04:49:44;;;;;;;14.35;6.97;;;12.10;99.90;;;;;;5043745;28;20026;-75
2023/10/11 04:52:17;;;;;;;21.38;10.27;;;12.10;99.90;;;;;;5031385;28;20537;-74
2023/10/11 04:54:53;;;;;;;18.83;11.13;;;12.10;99.90;;;;;;5044547;28;20020;-75
2023/10/11 04:57:23;;;;;;;;;;;12.20;99.90;;;;;;5030540;28;20031;-74
2023/10/11 04:59:53;;;;;;;25.83;12.25;;;12.20;99.90;;;;;;5030069;28;19909;-76
2023/10/11 05:02:28;;;;;;;21.38;13.02;;;12.20;99.90;;;;;;5034994;28;20028;-75
2023/10/11 05:04:54;;;;;;;20.77;12.07;;;12.30;99.90;;;;;;5030478;28;20041;-76
2023/10/11 05:07:21;;;;;;;26.50;14.13;;;12.30;99.90;;;;;;5031257;28;20021;-75
2023/10/11 05:10:22;;;;;;;23.15;11.80;;;12.30;99.90;;;;;;5032426;28;20498;-74
2023/10/11 05:12:47;;;;;;;22.17;11.73;;;12.30;99.90;;;;;;5030970;28;20032;-75
2023/10/11 05:15:15;;;;;;;20.17;11.45;;;12.30;99.90;;;;;;5030107;28;20112;-75
2023/10/11 05:17:42;;;;;;;16.70;10.20;;;12.20;99.90;;;;;;5030858;28;20469;-75
2023/10/11 05:30:06;;;;;;;19.10;11.30;;;12.30;99.90;;;;;;5030939;28;20065;-75
2023/10/11 05:32:32;;;;;;;22.27;10.00;;;12.40;99.90;;;;;;5029792;28;20018;-74
2023/10/11 05:35:19;;;;;;;15.32;8.75;;;12.40;99.90;;;;;;5029619;28;20041;-75
2023/10/11 05:51:29;;;;;;;19.33;12.07;;;12.50;99.90;;;;;;5030648;28;20062;-75
2023/10/11 05:53:55;;;;;;;;;;;12.50;99.90;;;;;;5031443;28;20470;-75
2023/10/11 05:56:21;;;;;;;27.25;13.68;;;12.50;99.90;;;;;;5042085;28;19916;-74
2023/10/11 05:58:51;;;;;;;30.10;14.35;;;12.60;99.90;;;;;;5047177;28;20033;-75
2023/10/11 06:01:21;;;;;;;32.40;15.95;;;12.60;99.90;;;;;;5050004;28;20029;-76
2023/10/11 06:03:48;;;;;;;32.05;14.40;;;12.70;99.90;;;;;;5049898;28;20284;-74
2023/10/11 06:06:24;;;;;;;25.40;12.90;;;12.70;99.90;;;;;;5048539;28;20128;-73
2023/10/11 06:08:56;;;;;;;32.13;13.00;;;12.70;99.90;;;;;;5048530;28;20802;-75
2023/10/11 06:11:24;;;;;;;21.80;11.82;;;12.70;99.90;;;;;;5048056;28;20033;-74
2023/10/11 06:13:52;;;;;;;17.83;9.77;;;12.70;99.90;;;;;;5049433;28;20044;-73
2023/10/11 06:16:22;;;;;;;17.75;9.63;;;12.70;99.90;;;;;;5049770;28;20060;-75
2023/10/11 06:18:58;;;;;;;16.15;9.23;;;12.80;99.90;;;;;;5049550;28;20045;-72
2023/10/11 06:21:30;;;;;;;18.98;11.38;;;12.80;99.90;;;;;;5050004;28;20029;-73
2023/10/11 06:23:57;;;;;;;29.08;12.25;;;12.90;99.90;;;;;;5050003;28;20037;-73
2023/10/11 06:26:52;;;;;;;27.23;13.15;;;12.90;99.90;;;;;;5048251;28;20063;-74
2023/10/11 06:29:24;;;;;;;23.33;11.88;;;12.90;99.90;;;;;;5049461;28;20029;-72
2023/10/11 06:31:52;;;;;;;19.38;10.23;;;13.10;99.90;;;;;;5047590;28;20387;-73
2023/10/11 06:36:48;;;;;;;17.15;8.93;;;13.00;99.90;;;;;;5049549;28;20039;-72
2023/10/11 06:42:13;;;;;;;24.08;8.73;;;13.20;99.90;;;;;;5049378;28;20108;-74
2023/10/11 06:44:47;;;;;;;33.75;13.75;;;13.30;99.90;;;;;;5048167;28;20029;-73
2023/10/11 06:47:13;;;;;;;41.72;17.92;;;13.30;99.90;;;;;;5048154;28;20024;-72
2023/10/11 06:49:44;;;;;;;51.70;22.33;;;13.40;99.90;;;;;;5047984;28;20048;-73
2023/10/11 06:52:15;;;;;;;51.40;21.83;;;13.50;99.90;;;;;;5049108;28;20032;-73
2023/10/11 06:54:47;;;;;;;52.08;20.83;;;13.60;99.90;;;;;;5047947;28;20119;-73
2023/10/11 06:57:19;;;;;;;60.78;21.38;;;13.60;99.90;;;;;;5047728;28;20440;-73
2023/10/11 06:59:57;;;;;;;48.50;20.63;;;13.70;99.90;;;;;;5047787;28;20655;-73
2023/10/11 07:02:32;;;;;;;53.92;21.35;;;13.80;99.90;;;;;;5047758;28;20033;-73
2023/10/11 07:05:13;;;;;;;41.22;18.35;;;14.00;99.90;;;;;;5047466;28;20043;-72
2023/10/11 07:07:39;;;;;;;43.97;17.60;;;14.20;99.90;;;;;;5047722;28;20024;-73
2023/10/11 07:10:23;;;;;;;47.95;19.02;;;14.30;99.90;;;;;;5047277;28;20029;-72
2023/10/11 07:12:59;;;;;;;42.45;18.60;;;14.40;99.90;;;;;;5048944;28;20047;-73
2023/10/11 07:15:25;;;;;;;35.90;16.45;;;14.60;99.90;;;;;;5047781;28;20091;-73
2023/10/11 07:17:52;;;;;;;38.70;15.75;;;15.00;99.90;;;;;;5048630;28;20056;-73
2023/10/11 07:20:47;;;;;;;28.77;13.52;;;15.30;99.90;;;;;;5048461;28;20037;-74
2023/10/11 07:23:22;;;;;;;35.00;16.13;;;15.40;99.90;;;;;;5047282;28;20116;-72
2023/10/11 07:25:59;;;;;;;36.58;15.57;;;15.70;99.90;;;;;;5047168;28;20124;-73
2023/10/11 07:28:35;;;;;;;41.85;16.63;;;15.80;99.90;;;;;;5048651;28;20486;-73
2023/10/11 07:31:04;;;;;;;38.33;16.90;;;15.80;99.90;;;;;;5047255;28;20039;-73
2023/10/11 07:33:31;;;;;;;34.10;16.98;;;15.80;99.90;;;;;;5048596;28;20037;-73
2023/10/11 07:35:59;;;;;;;32.58;17.13;;;15.80;99.90;;;;;;5048620;28;20386;-73
2023/10/11 07:38:33;;;;;;;35.28;15.65;;;15.80;99.90;;;;;;5048358;28;20479;-74
2023/10/11 07:41:14;;;;;;;27.58;12.88;;;15.70;99.90;;;;;;5047005;28;20451;-73
2023/10/11 07:43:45;;;;;;;29.70;14.60;;;15.70;99.90;;;;;;5047119;28;20914;-74
2023/10/11 07:46:12;;;;;;;30.50;14.48;;;15.70;99.90;;;;;;5046979;28;20029;-74
2023/10/11 07:48:39;;;;;;;25.85;12.55;;;15.70;99.90;;;;;;5046975;28;20029;-74
2023/10/11 07:51:12;;;;;;;21.33;11.73;;;15.70;99.90;;;;;;5046942;28;20501;-73
2023/10/11 07:53:45;;;;;;;22.30;12.70;;;15.70;99.90;;;;;;5048341;28;20141;-72
2023/10/11 07:56:15;;;;;;;27.88;13.55;;;15.70;99.90;;;;;;5052379;28;20025;-73
2023/10/11 07:58:45;;;;;;;28.50;13.20;;;15.70;99.90;;;;;;5052615;28;20024;-73
2023/10/11 08:01:24;;;;;;;21.67;11.10;;;15.70;99.90;;;;;;5051041;28;20032;-73
2023/10/11 08:03:51;;;;;;;22.52;10.57;;;15.70;99.90;;;;;;5052255;28;20036;-74
2023/10/11 08:06:25;;;;;;;19.05;8.73;;;15.70;99.90;;;;;;5052089;28;20124;-74
2023/10/11 08:08:59;;;;;;;37.83;11.88;;;15.70;99.90;;;;;;5051006;28;20052;-73
2023/10/11 08:11:35;;;;;;;19.48;9.90;;;15.70;99.90;;;;;;5052089;28;20036;-73
2023/10/11 08:14:03;;;;;;;24.88;8.85;;;15.80;99.90;;;;;;5050602;28;20029;-73
2023/10/11 08:16:33;;;;;;;16.95;8.65;;;15.80;99.90;;;;;;5052122;28;20025;-73
2023/10/11 08:18:59;;;;;;;18.13;8.65;;;15.80;99.90;;;;;;5052180;28;20045;-73
2023/10/11 08:21:24;;;;;;;26.33;10.20;;;15.80;99.90;;;;;;5050580;28;20083;-74
2023/10/11 08:23:50;;;;;;;19.10;10.52;;;15.80;99.90;;;;;;5050579;28;20041;-74
2023/10/11 08:26:18;;;;;;;21.83;9.63;;;15.80;99.90;;;;;;5052073;28;20167;-74
2023/10/11 08:28:48;;;;;;;28.83;15.95;;;15.80;99.90;;;;;;5050589;28;20382;-72
2023/10/11 08:33:58;;;;;;;17.25;10.25;;;15.90;99.90;;;;;;5051763;28;20035;-74
2023/10/11 08:36:27;;;;;;;24.05;12.15;;;16.10;99.90;;;;;;5050337;28;20025;-74
2023/10/11 08:38:55;;;;;;;20.65;10.60;;;16.30;99.90;;;;;;5050320;28;20433;-74
2023/10/11 08:41:22;;;;;;;23.88;11.82;;;16.50;99.90;;;;;;5051563;28;20044;-74
2023/10/11 08:43:49;;;;;;;19.85;10.13;;;16.70;99.90;;;;;;5051714;28;20112;-76
2023/10/11 08:46:18;;;;;;;21.83;11.05;;;16.80;99.90;;;;;;5051494;28;20036;-73
2023/10/11 08:48:49;;;;;;;23.02;10.93;;;16.90;99.90;;;;;;5050159;28;20033;-75
2023/10/11 08:51:22;;;;;;;20.50;11.00;;;17.00;99.90;;;;;;5051510;28;20080;-76
2023/10/11 08:53:54;;;;;;;22.67;11.13;;;17.10;99.90;;;;;;5051271;28;20061;-76
2023/10/11 08:56:23;;;;;;;30.88;14.43;;;17.10;99.90;;;;;;5050063;28;20029;-77
2023/10/11 08:58:51;;;;;;;19.80;10.57;;;17.10;99.90;;;;;;5051314;28;20098;-75
2023/10/11 09:01:17;;;;;;;17.85;11.45;;;17.20;99.90;;;;;;5051244;28;20103;-74
2023/10/11 09:03:43;;;;;;;17.63;9.40;;;17.40;99.90;;;;;;5049866;28;20527;-75
2023/10/11 09:06:22;;;;;;;18.92;10.05;;;17.60;99.90;;;;;;5048528;28;20059;-73
2023/10/11 09:08:49;;;;;;;21.15;9.82;;;17.90;99.90;;;;;;5051012;28;20028;-76
2023/10/11 09:11:33;;;;;;;21.17;10.00;;;18.10;99.90;;;;;;5042258;28;20029;-76
2023/10/11 09:14:22;;;;;;;19.50;11.30;;;18.40;99.90;;;;;;5041326;28;20063;-73
2023/10/11 09:16:52;;;;;;;22.17;10.77;;;19.20;99.90;;;;;;5030699;28;20502;-74
2023/10/11 09:19:22;;;;;;;14.60;8.98;;;19.40;99.90;;;;;;5031157;28;20108;-74
2023/10/11 09:22:04;;;;;;;17.98;9.48;;;19.70;99.90;;;;;;5027977;28;20029;-73
2023/10/11 09:24:37;;;;;;;18.85;9.43;;;19.90;99.90;;;;;;5028724;28;20064;-74
2023/10/11 09:29:42;;;;;;;11.77;7.68;;;20.60;99.90;;;;;;5030301;28;20033;-74
2023/10/11 09:32:09;;;;;;;20.35;8.65;;;21.00;99.50;;;;;;5029459;28;20029;-73
2023/10/11 09:34:41;;;;;;;13.88;7.05;;;21.00;99.50;;;;;;5030749;28;20022;-73
2023/10/11 09:37:11;;;;;;;14.95;6.95;;;21.00;99.80;;;;;;5029479;28;20107;-73
2023/10/11 09:39:43;;;;;;;15.98;7.97;;;21.40;99.30;;;;;;5030258;28;20041;-73
2023/10/11 09:42:16;;;;;;;11.40;6.53;;;21.40;98.70;;;;;;5030411;28;20413;-74
2023/10/11 09:44:45;;;;;;;12.70;7.28;;;21.60;98.30;;;;;;5030532;28;20052;-73
2023/10/11 09:47:19;;;;;;;14.13;7.50;;;21.70;97.60;;;;;;5028773;28;20028;-74
2023/10/11 09:49:52;;;;;;;18.63;8.10;;;21.70;97.60;;;;;;5029098;28;20661;-75
2023/10/11 09:52:23;;;;;;;13.50;8.10;;;21.60;97.40;;;;;;5029105;28;20032;-73
2023/10/11 09:54:50;;;;;;;12.23;7.22;;;21.40;97.60;;;;;;5031578;28;20112;-74
2023/10/11 09:57:38;;;;;;;18.52;10.23;;;21.10;98.50;;;;;;5028874;28;20029;-73
2023/10/11 10:00:16;;;;;;;13.07;7.25;;;21.10;99.60;;;;;;5028929;28;20383;-72
2023/10/11 10:02:47;;;;;;;12.60;7.65;;;21.10;99.90;;;;;;5030299;28;20029;-74
2023/10/11 10:05:13;;;;;;;12.02;6.90;;;21.20;99.90;;;;;;5028948;28;20037;-73
2023/10/11 10:10:07;;;;;;;19.80;11.13;;;21.20;99.90;;;;;;5029767;28;20033;-73
2023/10/11 10:12:55;;;;;;;16.05;8.55;;;21.20;99.70;;;;;;5029679;28;20048;-74
2023/10/11 10:15:28;;;;;;;18.45;9.40;;;21.10;99.60;;;;;;5028665;28;20095;-74
2023/10/11 10:17:56;;;;;;;18.73;8.45;;;21.00;99.10;;;;;;5029352;28;20044;-73
2023/10/11 10:20:43;;;;;;;13.05;8.90;;;20.90;99.40;;;;;;5035261;28;20041;-73
2023/10/11 10:23:14;;;;;;;;;;;20.80;99.80;;;;;;5050364;28;20025;-73
2023/10/11 10:25:45;;;;;;;16.88;7.90;;;20.70;99.80;;;;;;5049613;28;19916;-74
2023/10/11 10:28:36;;;;;;;23.83;12.93;;;20.70;99.90;;;;;;5034241;28;20052;-73
2023/10/11 10:31:24;;;;;;;16.33;8.07;;;20.70;99.90;;;;;;5028149;28;20032;-74
2023/10/11 10:34:13;;;;;;;15.25;7.82;;;20.60;99.90;;;;;;5038226;28;20060;-74
2023/10/11 10:36:40;;;;;;;18.80;7.68;;;20.60;99.90;;;;;;5037005;28;20025;-74
2023/10/11 10:39:24;;;;;;;16.63;7.53;;;20.50;99.90;;;;;;5044796;28;20030;-73
2023/10/11 10:42:15;;;;;;;10.65;6.32;;;20.50;99.90;;;;;;5029371;28;20738;-74
2023/10/11 10:44:50;;;;;;;14.85;6.88;;;20.30;99.90;;;;;;5048118;28;20040;-73
2023/10/11 10:47:25;;;;;;;14.05;6.53;;;20.30;99.90;;;;;;5049040;28;20079;-73
2023/10/11 10:49:53;;;;;;;16.98;7.85;;;20.20;99.90;;;;;;5049160;28;20037;-72
2023/10/11 10:52:29;;;;;;;13.90;8.20;;;20.10;99.90;;;;;;5049088;28;20029;-73
2023/10/11 10:55:03;;;;;;;19.20;7.60;;;20.10;99.90;;;;;;5049101;28;20032;-73
2023/10/11 10:57:36;;;;;;;19.20;9.35;;;20.00;99.90;;;;;;5047752;28;20036;-72
2023/10/11 11:00:05;;;;;;;17.70;8.48;;;19.90;99.90;;;;;;5048951;28;20032;-73
2023/10/11 11:02:35;;;;;;;17.05;7.70;;;19.80;99.90;;;;;;5048935;28;20024;-73
2023/10/11 11:05:01;;;;;;;15.13;7.88;;;19.80;99.90;;;;;;5048797;28;20044;-73
2023/10/11 11:07:27;;;;;;;15.95;7.22;;;19.80;99.90;;;;;;5047872;28;20037;-73
2023/10/11 11:09:57;;;;;;;15.43;7.63;;;19.80;99.90;;;;;;5048863;28;20017;-73
2023/10/11 11:12:30;;;;;;;19.65;8.07;;;19.80;99.90;;;;;;5048445;28;20116;-73
2023/10/11 11:15:00;;;;;;;20.95;8.52;;;19.80;99.90;;;;;;5048548;28;20456;-75
2023/10/11 11:17:46;;;;;;;23.30;9.55;;;19.90;99.90;;;;;;5048319;28;20071;-73
2023/10/11 11:20:27;;;;;;;22.77;10.87;;;19.90;99.90;;;;;;5048681;28;20567;-73
2023/10/11 11:22:53;;;;;;;22.42;9.55;;;20.00;99.90;;;;;;5047295;28;20036;-73
2023/10/11 11:25:27;;;;;;;20.80;9.50;;;20.00;99.90;;;;;;5046979;28;20049;-73
2023/10/11 11:28:05;;;;;;;23.77;10.32;;;20.00;99.90;;;;;;5048697;28;20028;-73
2023/10/11 11:30:34;;;;;;;24.55;10.38;;;20.00;99.90;;;;;;5047893;28;20039;-73
2023/10/11 11:33:08;;;;;;;21.70;9.40;;;20.00;99.90;;;;;;5048056;28;20029;-74
2023/10/11 11:35:51;;;;;;;;;;;20.00;99.90;;;;;;5048334;28;20033;-74
2023/10/11 11:38:23;;;;;;;27.63;9.68;;;20.00;99.90;;;;;;5046894;28;19923;-74
2023/10/11 11:40:59;;;;;;;15.15;8.13;;;20.00;99.90;;;;;;5047790;28;20036;-74
2023/10/11 11:43:32;;;;;;;17.25;8.88;;;20.00;99.90;;;;;;5045974;28;20108;-73
2023/10/11 11:46:01;;;;;;;23.85;9.57;;;20.00;99.90;;;;;;5045241;28;20041;-73
2023/10/11 11:48:28;;;;;;;23.15;8.25;;;20.10;99.90;;;;;;5046592;28;20112;-73
2023/10/11 11:50:57;;;;;;;15.85;7.65;;;20.10;99.90;;;;;;5046480;28;20107;-73
2023/10/11 11:53:23;;;;;;;21.63;6.72;;;20.10;99.90;;;;;;5046559;28;20029;-74
2023/10/11 11:55:49;;;;;;;17.40;6.47;;;20.10;99.90;;;;;;5045663;28;20036;-74
2023/10/11 11:58:17;;;;;;;16.58;7.28;;;20.10;99.90;;;;;;5047024;28;20021;-73
2023/10/11 12:00:59;;;;;;;12.70;5.90;;;20.20;99.90;;;;;;5048029;28;20517;-72
2023/10/11 12:03:25;;;;;;;14.80;6.47;;;20.20;99.90;;;;;;5047073;28;20067;-73
2023/10/11 12:05:52;;;;;;;21.40;7.78;;;20.20;99.90;;;;;;5047021;28;20118;-74
2023/10/11 12:08:20;;;;;;;16.30;6.72;;;20.30;99.90;;;;;;5048199;28;20036;-73
2023/10/11 12:10:49;;;;;;;15.50;6.72;;;20.30;99.90;;;;;;5046848;28;20510;-74
2023/10/11 12:13:22;;;;;;;17.83;7.15;;;20.30;99.90;;;;;;5048163;28;20048;-73
2023/10/11 12:15:54;;;;;;;20.02;7.43;;;20.50;99.90;;;;;;5046844;28;20048;-74
2023/10/11 12:18:24;;;;;;;14.75;5.70;;;20.50;99.90;;;;;;5048003;28;20123;-74
2023/10/11 12:20:50;;;;;;;16.83;6.45;;;20.60;99.90;;;;;;5047892;28;20401;-73
2023/10/11 12:23:16;;;;;;;28.45;6.72;;;20.70;99.90;;;;;;5048100;28;20393;-74
2023/10/11 12:25:47;;;;;;;13.63;5.55;;;20.80;99.90;;;;;;5047968;28;20037;-73
2023/10/11 12:28:13;;;;;;;12.68;4.93;;;20.90;99.90;;;;;;5048085;28;20025;-74
2023/10/11 12:30:39;;;;;;;15.80;5.30;;;21.00;99.90;;;;;;5046537;28;20021;-74
2023/10/11 12:33:08;;;;;;;21.65;5.55;;;21.00;99.90;;;;;;5046668;28;20457;-75
2023/10/11 12:35:41;;;;;;;18.70;6.50;;;21.10;99.90;;;;;;5046610;28;20517;-74
2023/10/11 12:38:12;;;;;;;12.35;5.00;;;21.10;99.90;;;;;;5047656;28;20548;-73
2023/10/11 12:40:38;;;;;;;12.35;5.50;;;21.20;99.90;;;;;;5049360;28;20036;-73
2023/10/11 12:43:07;;;;;;;10.80;5.43;;;21.20;99.90;;;;;;5051624;28;20061;-74
2023/10/11 12:45:34;;;;;;;19.42;5.15;;;21.30;99.90;;;;;;5051598;28;20064;-75
2023/10/11 12:48:06;;;;;;;10.77;4.32;;;21.30;99.90;;;;;;5051715;28;20086;-74
2023/10/11 12:50:36;;;;;;;14.50;5.18;;;21.30;99.90;;;;;;5050519;28;20402;-74
2023/10/11 12:53:10;;;;;;;12.70;4.55;;;21.30;99.90;;;;;;5050276;28;20028;-73
2023/10/11 12:55:41;;;;;;;11.77;4.60;;;21.40;99.90;;;;;;5050241;28;20079;-74
2023/10/11 12:58:08;;;;;;;9.00;3.65;;;21.40;99.90;;;;;;5050142;28;20025;-73
2023/10/11 13:00:37;;;;;;;12.25;4.43;;;21.30;99.90;;;;;;5049771;28;20111;-73
2023/10/11 13:03:18;;;;;;;13.77;4.28;;;21.40;99.90;;;;;;5051352;28;20521;-73
2023/10/11 13:05:45;;;;;;;14.43;3.83;;;21.40;99.90;;;;;;5051052;28;20082;-74
2023/10/11 13:08:12;;;;;;;11.43;3.97;;;21.40;99.90;;;;;;5049822;28;20752;-73
2023/10/11 13:10:49;;;;;;;8.63;3.40;;;21.40;99.20;;;;;;5050016;28;20033;-73
2023/10/11 13:13:15;;;;;;;9.55;3.88;;;21.50;98.40;;;;;;5049798;28;20434;-74
2023/10/11 13:15:55;;;;;;;7.13;2.88;;;21.40;98.30;;;;;;5049794;28;20064;-73
2023/10/11 13:18:22;;;;;;;9.73;2.65;;;21.40;98.70;;;;;;5049558;28;20091;-74
2023/10/11 13:20:47;;;;;;;8.02;2.42;;;21.30;99.00;;;;;;5050725;28;20144;-72
2023/10/11 13:23:13;;;;;;;24.20;3.97;;;21.30;98.90;;;;;;5049604;28;20480;-74
2023/10/11 13:25:39;;;;;;;11.73;2.80;;;21.30;98.00;;;;;;5050754;28;20060;-73
2023/10/11 13:28:05;;;;;;;14.85;3.22;;;21.30;98.50;;;;;;5050728;28;20537;-73
2023/10/11 13:30:36;;;;;;;8.40;3.22;;;21.30;98.40;;;;;;5049411;28;20040;-73
2023/10/11 13:33:05;;;;;;;9.13;2.75;;;21.30;98.30;;;;;;5049448;28;20025;-74
2023/10/11 13:35:33;;;;;;;14.65;2.70;;;21.30;98.10;;;;;;5049376;28;20032;-73
2023/10/11 13:38:04;;;;;;;9.00;3.05;;;21.30;98.40;;;;;;5050912;28;20079;-73
2023/10/11 13:40:32;;;;;;;10.25;3.05;;;21.30;98.40;;;;;;5050673;28;20120;-74
2023/10/11 13:42:57;;;;;;;13.68;3.17;;;21.30;98.10;;;;;;5050560;28;20017;-73
2023/10/11 13:45:23;;;;;;;12.63;3.30;;;21.30;97.90;;;;;;5050374;28;20125;-74
2023/10/11 13:47:51;;;;;;;10.65;3.22;;;21.30;97.90;;;;;;5050397;28;20029;-73
2023/10/11 13:50:35;;;;;;;10.55;3.10;;;21.20;97.80;;;;;;5050366;28;20049;-74